Time;durP1;ratioP1;P1;durP2;ratioP2;P2;SDS_P1;SDS_P2;PMS_P1;PMS_P2;Temp;Humidity;BMP_temperature;BMP_pressure;BME280_temperature;BME280_humidity;BME280_pressure;Samples;Min_cycle;Max_cycle;Signal;HPM_P1;HPM_P2
2021/06/03 09:40:51;;;;;;;8.50;5.57;;;21.30;60.50;;;;;;5219228;27;20992;-61
2021/06/03 09:43:24;;;;;;;10.48;4.72;;;21.20;60.70;;;;;;5184508;28;20785;-57
2021/06/03 09:45:59;;;;;;;4.85;4.35;;;21.30;61.00;;;;;;5189880;27;20048;-56
2021/06/03 09:48:38;;;;;;;7.85;4.75;;;21.50;60.60;;;;;;5182524;27;20052;-59
2021/06/03 09:51:33;;;;;;;8.60;4.53;;;21.60;60.20;;;;;;5193650;27;20047;-57
2021/06/03 09:54:27;;;;;;;5.40;4.70;;;21.80;60.40;;;;;;5210279;28;20081;-59
2021/06/03 09:57:04;;;;;;;6.72;4.43;;;22.00;59.70;;;;;;5196966;28;20056;-59
2021/06/03 09:59:56;;;;;;;5.07;4.38;;;22.20;59.90;;;;;;5201514;28;20055;-60
2021/06/03 10:02:32;;;;;;;15.40;4.65;;;22.40;58.80;;;;;;5198394;28;20059;-56
2021/06/03 10:05:15;;;;;;;9.07;4.57;;;22.50;58.40;;;;;;5194372;28;20049;-59
2021/06/03 10:08:00;;;;;;;5.68;4.25;;;22.60;58.00;;;;;;5203985;28;20055;-58
2021/06/03 10:10:37;;;;;;;5.95;4.60;;;22.80;58.40;;;;;;5187028;28;21118;-56
2021/06/03 10:13:11;;;;;;;5.95;4.10;;;22.90;57.70;;;;;;5198946;28;20591;-59
2021/06/03 10:15:45;;;;;;;4.85;4.35;;;23.00;57.30;;;;;;5193608;28;20048;-61
2021/06/03 10:18:24;;;;;;;5.43;4.25;;;23.10;57.10;;;;;;5194815;28;20565;-60
2021/06/03 10:20:57;;;;;;;5.70;4.00;;;23.20;56.80;;;;;;5193774;28;20630;-61
2021/06/03 10:23:30;;;;;;;;;;;23.30;56.80;;;;;;5186141;27;20511;-58
2021/06/03 10:26:05;;;;;;;7.15;3.60;;;23.30;56.50;;;;;;5210628;27;20312;-57
2021/06/03 10:28:39;;;;;;;7.05;4.75;;;23.40;56.60;;;;;;5197859;28;20058;-59
2021/06/03 10:31:12;;;;;;;8.57;4.25;;;23.50;56.40;;;;;;5209248;27;20052;-57
2021/06/03 10:33:45;;;;;;;7.90;4.10;;;23.60;56.10;;;;;;5206745;28;20802;-61
2021/06/03 10:36:18;;;;;;;7.80;4.38;;;23.60;55.90;;;;;;5209782;28;21331;-61
2021/06/03 10:38:55;;;;;;;9.68;4.10;;;23.60;55.80;;;;;;5213767;27;20453;-60
2021/06/03 10:41:27;;;;;;;10.60;4.47;;;23.70;55.70;;;;;;5203461;27;20046;-58
2021/06/03 10:44:04;;;;;;;12.73;4.32;;;23.70;55.70;;;;;;5202245;27;20048;-59
2021/06/03 10:46:37;;;;;;;12.05;4.40;;;23.80;55.60;;;;;;5201191;28;20044;-61
2021/06/03 10:49:12;;;;;;;6.18;4.43;;;23.80;55.40;;;;;;5205683;27;20316;-59
2021/06/03 10:51:45;;;;;;;8.25;3.90;;;23.90;55.30;;;;;;5195950;28;20445;-57
2021/06/03 10:54:44;;;;;;;5.28;3.58;;;23.90;55.20;;;;;;5200597;28;20052;-61
2021/06/03 10:57:19;;;;;;;9.52;4.40;;;23.90;54.90;;;;;;5196683;28;20044;-59
2021/06/03 10:59:54;;;;;;;8.20;3.80;;;24.00;55.10;;;;;;5197166;28;20603;-59
2021/06/03 11:02:51;;;;;;;8.65;3.78;;;24.00;55.00;;;;;;5200288;28;20051;-57
2021/06/03 11:05:26;;;;;;;9.00;3.83;;;24.00;54.80;;;;;;5202453;28;20040;-60
2021/06/03 11:08:41;;;;;;;6.22;3.67;;;24.00;54.90;;;;;;5198533;28;21242;-60
2021/06/03 11:11:14;;;;;;;9.32;3.63;;;24.00;54.70;;;;;;5182775;28;20047;-61
2021/06/03 11:13:47;;;;;;;7.10;3.88;;;24.10;54.90;;;;;;5202079;28;20048;-56
2021/06/03 11:16:23;;;;;;;7.93;4.17;;;24.10;54.70;;;;;;5193138;28;21375;-60
2021/06/03 11:18:56;;;;;;;7.35;3.72;;;24.10;54.60;;;;;;5200855;28;20532;-60
2021/06/03 11:21:32;;;;;;;7.30;3.97;;;24.20;54.60;;;;;;5193912;28;20563;-55
2021/06/03 11:24:05;;;;;;;5.63;4.38;;;24.20;54.50;;;;;;5192876;28;20048;-61
2021/06/03 11:26:38;;;;;;;5.47;3.80;;;24.20;54.50;;;;;;5182999;28;20048;-61
2021/06/03 11:29:37;;;;;;;8.48;4.25;;;24.20;54.40;;;;;;5195738;28;20435;-60
2021/06/03 11:32:09;;;;;;;7.78;4.25;;;24.20;54.30;;;;;;5200673;27;20087;-58
2021/06/03 11:34:48;;;;;;;8.20;4.50;;;24.30;54.40;;;;;;5196110;28;20558;-59
2021/06/03 11:37:28;;;;;;;6.63;4.63;;;24.30;54.30;;;;;;5192438;28;20558;-57
2021/06/03 11:40:06;;;;;;;12.23;4.35;;;24.30;54.30;;;;;;5195571;28;20032;-58
2021/06/03 11:42:41;;;;;;;7.47;4.47;;;24.30;54.30;;;;;;5192778;28;20044;-56
2021/06/03 11:45:19;;;;;;;7.93;4.05;;;24.30;54.40;;;;;;5196777;28;20590;-58
2021/06/03 11:47:55;;;;;;;7.30;4.80;;;24.30;54.30;;;;;;5194498;28;20043;-57
2021/06/03 11:50:31;;;;;;;11.25;4.35;;;24.30;54.40;;;;;;5192377;28;20535;-59
2021/06/03 11:53:05;;;;;;;4.90;4.07;;;24.30;54.40;;;;;;5195007;28;20796;-60
2021/06/03 12:30:40;;;;;;;17.88;9.05;;;24.10;53.90;;;;;;5185543;28;20580;-58
2021/06/03 12:33:24;;;;;;;16.83;8.15;;;24.10;54.20;;;;;;5195870;28;20097;-60
2021/06/03 12:36:05;;;;;;;14.55;8.40;;;24.20;54.10;;;;;;5177566;28;20556;-57
2021/06/03 12:38:42;;;;;;;14.00;8.52;;;24.20;53.90;;;;;;5199264;28;20059;-56
2021/06/03 12:41:36;;;;;;;20.42;9.32;;;24.20;53.80;;;;;;5206078;27;20055;-58
2021/06/03 12:44:11;;;;;;;18.50;10.18;;;24.20;53.80;;;;;;5213662;27;20043;-58
2021/06/03 12:46:54;;;;;;;20.15;9.05;;;24.20;53.80;;;;;;5216534;27;20505;-58
2021/06/03 12:49:28;;;;;;;14.10;9.13;;;24.30;53.80;;;;;;5222839;28;21331;-60
2021/06/03 12:52:07;;;;;;;14.63;8.95;;;24.30;53.70;;;;;;5224728;28;20048;-57
2021/06/03 12:54:45;;;;;;;18.98;9.07;;;24.30;53.60;;;;;;5209373;28;20062;-58
2021/06/03 12:57:18;;;;;;;13.80;8.75;;;24.30;53.60;;;;;;5220618;27;20074;-60
2021/06/03 12:59:53;;;;;;;13.55;8.57;;;24.30;53.40;;;;;;5216452;28;20075;-60
2021/06/03 13:02:32;;;;;;;13.02;8.00;;;24.40;53.40;;;;;;5206677;28;20048;-59
2021/06/03 13:05:10;;;;;;;14.27;7.88;;;24.40;53.40;;;;;;5217799;28;20044;-58
2021/06/03 13:07:44;;;;;;;16.02;8.60;;;24.30;53.40;;;;;;5219299;28;21265;-58
2021/06/03 13:10:23;;;;;;;12.18;8.10;;;24.40;53.50;;;;;;5217709;28;20048;-60
2021/06/03 13:13:04;;;;;;;10.45;7.45;;;24.30;53.40;;;;;;5210433;28;20052;-59
2021/06/03 13:15:46;;;;;;;12.10;8.02;;;24.30;53.40;;;;;;5221102;28;20408;-59
2021/06/03 13:18:25;;;;;;;12.05;8.38;;;24.30;53.30;;;;;;5175891;28;20048;-60
2021/06/03 13:20:58;;;;;;;10.63;7.57;;;24.30;53.30;;;;;;5205229;28;20050;-57
2021/06/03 13:23:30;;;;;;;16.10;7.53;;;24.40;53.30;;;;;;5204827;28;20048;-59
2021/06/03 13:26:03;;;;;;;14.10;7.38;;;24.40;53.40;;;;;;5220285;28;20054;-58
2021/06/03 13:28:35;;;;;;;10.38;6.45;;;24.40;53.30;;;;;;5201644;28;20048;-55
2021/06/03 13:31:09;;;;;;;9.25;6.57;;;24.40;53.30;;;;;;5226935;28;20570;-60
2021/06/03 13:33:42;;;;;;;12.20;7.80;;;24.40;53.20;;;;;;5201376;28;20464;-59
2021/06/03 13:36:15;;;;;;;11.93;6.85;;;24.40;53.40;;;;;;5222575;28;20047;-56
2021/06/03 13:38:49;;;;;;;8.05;6.60;;;24.40;53.20;;;;;;5210879;28;20282;-60
2021/06/03 13:41:21;;;;;;;9.98;7.05;;;24.40;53.10;;;;;;5213158;28;20177;-60
2021/06/03 13:44:02;;;;;;;10.02;6.93;;;24.40;53.20;;;;;;5206794;28;20051;-61
2021/06/03 13:46:45;;;;;;;12.13;6.78;;;24.40;53.10;;;;;;5193952;28;20522;-57
2021/06/03 13:49:31;;;;;;;7.70;6.57;;;24.30;53.10;;;;;;5214345;28;20039;-57
2021/06/03 13:52:04;;;;;;;9.55;6.07;;;24.30;53.10;;;;;;5213105;28;20048;-58
2021/06/03 13:54:37;;;;;;;9.02;6.47;;;24.40;53.10;;;;;;5217796;28;20070;-58
2021/06/03 13:57:10;;;;;;;10.07;6.17;;;24.40;53.10;;;;;;5229665;28;20816;-61
2021/06/03 13:59:56;;;;;;;10.34;6.44;;;24.40;53.10;;;;;;4446681;28;10001928;-60
2021/06/03 14:02:29;;;;;;;9.38;6.32;;;24.40;53.60;;;;;;5202092;28;20055;-60
2021/06/03 14:05:10;;;;;;;6.70;5.82;;;24.40;53.00;;;;;;5208345;28;20454;-58
2021/06/03 14:08:13;;;;;;;7.57;5.80;;;24.40;52.90;;;;;;5218704;28;20079;-61
2021/06/03 14:11:10;;;;;;;11.95;5.63;;;24.40;52.80;;;;;;5210078;28;20042;-60
2021/06/03 14:13:52;;;;;;;9.93;6.00;;;24.40;52.90;;;;;;5233052;28;20043;-58
2021/06/03 14:16:49;;;;;;;7.70;5.03;;;24.40;52.90;;;;;;5230810;28;20052;-57
2021/06/03 14:19:49;;;;;;;8.30;5.03;;;24.40;53.20;;;;;;5233438;28;20036;-59
2021/06/03 14:22:30;;;;;;;8.57;6.10;;;24.40;53.00;;;;;;5217156;28;20066;-60
2021/06/03 14:25:11;;;;;;;7.50;5.25;;;24.40;53.00;;;;;;5231485;28;20633;-60
2021/06/03 14:27:46;;;;;;;9.23;4.93;;;24.40;53.10;;;;;;5232642;28;20044;-57
2021/06/03 14:30:22;;;;;;;17.20;6.10;;;24.50;53.10;;;;;;5239529;28;20603;-61
2021/06/03 14:33:00;;;;;;;9.57;4.53;;;24.50;53.60;;;;;;5221057;28;20047;-57
2021/06/03 14:35:35;;;;;;;10.63;5.50;;;24.50;53.30;;;;;;5226645;27;20052;-59
2021/06/03 14:38:15;;;;;;;8.30;4.45;;;24.50;53.20;;;;;;5224051;28;20062;-61
2021/06/03 14:40:48;;;;;;;6.07;4.70;;;24.50;53.30;;;;;;5232035;27;20047;-61
2021/06/03 14:43:31;;;;;;;8.48;5.10;;;24.50;53.30;;;;;;5227487;27;20055;-61
2021/06/03 14:46:07;;;;;;;;;;;24.50;53.40;;;;;;5232065;27;20150;-59
2021/06/03 14:48:40;;;;;;;8.18;5.32;;;24.50;53.50;;;;;;5237385;27;19930;-58
2021/06/03 14:51:14;;;;;;;7.55;5.18;;;24.50;53.50;;;;;;5233261;27;20549;-58
2021/06/03 14:53:46;;;;;;;6.30;4.90;;;24.50;53.60;;;;;;5226831;28;20550;-58
2021/06/03 14:56:19;;;;;;;9.20;4.50;;;24.50;53.60;;;;;;5232518;28;20511;-59
2021/06/03 14:58:52;;;;;;;7.57;4.80;;;24.50;53.60;;;;;;5233047;27;20583;-60
2021/06/03 15:01:24;;;;;;;6.07;4.85;;;24.60;53.60;;;;;;5235344;27;20556;-61
2021/06/03 15:03:57;;;;;;;6.28;4.63;;;24.60;53.70;;;;;;5223474;28;20503;-59
2021/06/03 15:06:30;;;;;;;8.85;4.93;;;24.60;53.60;;;;;;5235737;27;20047;-61
2021/06/03 15:09:03;;;;;;;7.88;4.50;;;24.60;53.60;;;;;;5232806;28;20048;-58
2021/06/03 15:11:35;;;;;;;8.67;4.60;;;24.60;53.60;;;;;;5228569;27;20035;-59
2021/06/03 15:14:08;;;;;;;7.27;5.13;;;24.60;53.60;;;;;;5215104;28;20047;-60
2021/06/03 15:16:41;;;;;;;5.67;5.07;;;24.60;53.60;;;;;;5237048;28;20644;-58
2021/06/03 15:19:14;;;;;;;9.38;4.82;;;24.60;53.60;;;;;;5231991;27;20039;-61
2021/06/03 15:21:46;;;;;;;6.70;4.77;;;24.60;53.60;;;;;;5228537;27;20058;-60
2021/06/03 15:24:19;;;;;;;5.50;4.60;;;24.60;53.60;;;;;;5229529;27;20040;-60
2021/06/03 15:26:55;;;;;;;7.68;4.72;;;24.60;53.60;;;;;;5206423;27;20055;-60
2021/06/03 15:29:27;;;;;;;9.82;5.30;;;24.60;53.70;;;;;;5232065;27;20055;-62
2021/06/03 15:32:08;;;;;;;8.55;4.90;;;24.60;53.70;;;;;;5230299;27;20051;-61
2021/06/03 15:34:42;;;;;;;12.77;4.57;;;24.70;53.70;;;;;;5232304;27;20055;-59
2021/06/03 15:37:15;;;;;;;7.85;4.72;;;24.60;53.70;;;;;;5196978;28;20910;-61
2021/06/03 15:39:47;;;;;;;8.95;5.00;;;24.70;53.70;;;;;;5228469;27;20521;-62
2021/06/03 15:42:20;;;;;;;9.85;5.10;;;24.70;53.80;;;;;;5225700;27;20039;-57
2021/06/03 15:44:52;;;;;;;7.50;4.63;;;24.70;53.70;;;;;;5240834;27;20118;-58
2021/06/03 15:47:25;;;;;;;5.40;4.13;;;24.70;53.80;;;;;;5233086;28;20051;-59
2021/06/03 15:49:58;;;;;;;6.32;4.78;;;24.60;53.70;;;;;;5237569;27;20293;-60
2021/06/03 15:52:30;;;;;;;9.77;5.70;;;24.70;53.80;;;;;;5202975;27;20056;-56
2021/06/03 15:55:06;;;;;;;10.88;5.53;;;24.70;53.70;;;;;;5226701;27;20047;-61
2021/06/03 15:57:38;;;;;;;5.75;4.22;;;24.60;53.70;;;;;;5219366;27;20387;-61
2021/06/03 16:00:15;;;;;;;5.20;4.07;;;24.70;53.80;;;;;;5205916;27;21476;-58
2021/06/03 16:02:48;;;;;;;5.78;4.30;;;24.70;53.90;;;;;;5216488;27;20463;-57
2021/06/03 16:05:20;;;;;;;9.10;4.13;;;24.60;53.80;;;;;;5227886;27;20051;-59
2021/06/03 16:07:54;;;;;;;9.25;4.25;;;24.60;53.80;;;;;;5232265;28;20051;-58
2021/06/03 16:10:29;;;;;;;9.23;5.00;;;24.60;53.80;;;;;;5209630;28;21033;-55
2021/06/03 16:13:02;;;;;;;7.30;4.28;;;24.60;53.80;;;;;;5226535;28;20059;-58
2021/06/03 16:15:35;;;;;;;6.00;4.43;;;24.50;53.70;;;;;;5225213;28;20518;-56
2021/06/03 16:18:09;;;;;;;6.47;4.63;;;24.50;53.70;;;;;;5217852;28;20058;-58
2021/06/03 16:20:42;;;;;;;11.23;4.50;;;24.50;53.70;;;;;;5225792;28;20055;-59
2021/06/03 16:23:15;;;;;;;6.80;4.20;;;24.50;53.50;;;;;;5207943;27;21384;-54
2021/06/03 16:25:48;;;;;;;9.10;3.70;;;24.50;53.60;;;;;;5214923;27;20440;-56
2021/06/03 16:28:20;;;;;;;6.65;4.68;;;24.50;53.50;;;;;;5198255;27;20482;-59
2021/06/03 16:30:54;;;;;;;7.88;4.65;;;24.40;53.50;;;;;;5224804;28;20047;-59
2021/06/03 16:33:27;;;;;;;7.93;4.20;;;24.50;53.40;;;;;;5223417;28;20039;-59
2021/06/03 16:36:12;;;;;;;4.32;3.90;;;24.40;53.30;;;;;;5204864;28;20036;-59
2021/06/03 16:38:46;;;;;;;;;;;24.40;53.30;;;;;;5229377;28;20519;-60
2021/06/03 16:41:23;;;;;;;7.28;4.03;;;24.30;53.20;;;;;;5228748;27;19954;-57
2021/06/03 16:44:02;;;;;;;5.78;4.45;;;24.30;53.40;;;;;;5228399;27;20673;-57
2021/06/03 16:46:35;;;;;;;5.60;4.50;;;24.40;53.30;;;;;;5204624;28;20519;-56
2021/06/03 16:49:08;;;;;;;4.70;4.00;;;24.40;53.20;;;;;;5217232;28;20058;-60
2021/06/03 16:51:40;;;;;;;4.43;3.78;;;24.40;53.10;;;;;;5205600;28;21478;-61
2021/06/03 16:54:13;;;;;;;6.82;4.05;;;24.40;53.10;;;;;;5202008;28;21189;-56
2021/06/03 16:56:46;;;;;;;5.50;3.80;;;24.40;53.80;;;;;;5228887;28;20055;-61
2021/06/03 16:59:18;;;;;;;5.18;3.85;;;24.50;53.20;;;;;;5226154;28;21237;-57
2021/06/03 17:01:51;;;;;;;6.35;3.97;;;24.50;53.40;;;;;;5225095;28;20526;-60
2021/06/03 17:04:24;;;;;;;6.18;3.72;;;24.50;53.30;;;;;;5225618;28;20358;-61
2021/06/03 17:06:56;;;;;;;5.43;3.87;;;24.50;53.30;;;;;;5227177;28;20530;-56
2021/06/03 17:09:29;;;;;;;6.13;3.67;;;24.50;53.40;;;;;;5219435;27;20050;-59
2021/06/03 17:12:02;;;;;;;8.17;4.17;;;24.50;53.40;;;;;;5199111;28;20047;-59
2021/06/03 17:14:34;;;;;;;9.03;4.00;;;24.50;53.40;;;;;;5220786;28;20083;-60
2021/06/03 17:17:07;;;;;;;5.18;3.78;;;24.50;53.40;;;;;;5226368;28;20039;-56
2021/06/03 17:19:39;;;;;;;8.82;4.07;;;24.50;53.40;;;;;;5227910;28;20048;-57
2021/06/03 17:22:12;;;;;;;4.57;3.88;;;24.50;53.40;;;;;;5229338;28;20048;-60
2021/06/03 17:24:45;;;;;;;5.07;3.83;;;24.60;53.50;;;;;;5200213;28;20608;-58
2021/06/03 17:27:17;;;;;;;10.47;4.43;;;24.60;53.60;;;;;;5220885;28;21262;-59
2021/06/03 17:29:51;;;;;;;6.38;4.07;;;24.50;53.50;;;;;;5221909;28;20043;-55
2021/06/03 17:32:23;;;;;;;4.30;3.90;;;24.50;53.50;;;;;;5197905;28;20052;-58
2021/06/03 17:34:57;;;;;;;5.43;3.53;;;24.50;53.50;;;;;;5228263;28;20450;-61
2021/06/03 17:37:30;;;;;;;7.20;3.88;;;24.40;53.60;;;;;;5232229;28;20520;-59
2021/06/03 17:40:07;;;;;;;5.43;4.22;;;24.40;53.60;;;;;;5208498;28;20048;-61
2021/06/03 17:42:40;;;;;;;6.80;4.05;;;24.40;53.50;;;;;;5215986;28;20039;-58
2021/06/03 17:45:17;;;;;;;4.22;3.83;;;24.40;53.30;;;;;;5221849;28;20040;-62
2021/06/03 17:47:58;;;;;;;5.13;3.60;;;24.40;53.30;;;;;;5217512;28;20074;-62
2021/06/03 17:50:33;;;;;;;7.68;4.38;;;24.40;53.10;;;;;;5211022;28;20063;-62
2021/06/03 17:53:08;;;;;;;8.90;4.85;;;24.40;53.10;;;;;;5221318;28;20541;-59
2021/06/03 17:55:45;;;;;;;6.00;3.55;;;24.40;53.20;;;;;;5208844;28;20051;-59
2021/06/03 17:58:21;;;;;;;7.10;3.85;;;24.40;53.40;;;;;;5230985;28;20047;-60
2021/06/03 18:00:54;;;;;;;7.55;3.85;;;24.40;53.40;;;;;;5239144;27;20332;-60
2021/06/03 18:03:30;;;;;;;5.57;3.67;;;24.40;53.40;;;;;;5230930;27;21027;-60
2021/06/03 18:06:05;;;;;;;6.10;3.55;;;24.40;53.60;;;;;;5220257;28;20550;-61
2021/06/03 18:08:38;;;;;;;7.57;3.85;;;24.40;53.60;;;;;;5237816;28;20041;-60
2021/06/03 18:11:11;;;;;;;7.50;3.53;;;24.40;53.70;;;;;;5235447;27;20043;-61
2021/06/03 18:13:44;;;;;;;6.88;3.53;;;24.40;53.70;;;;;;5213728;28;20054;-58
2021/06/03 18:16:17;;;;;;;4.72;3.63;;;24.40;53.80;;;;;;5213977;27;20047;-56
2021/06/03 18:18:50;;;;;;;6.28;3.45;;;24.40;53.80;;;;;;5215904;28;20055;-58
2021/06/03 18:21:22;;;;;;;10.32;3.90;;;24.40;53.90;;;;;;5231877;28;20518;-60
2021/06/03 18:23:55;;;;;;;6.35;3.83;;;24.40;54.00;;;;;;5235894;28;20055;-60
2021/06/03 18:26:28;;;;;;;5.28;3.92;;;24.40;54.00;;;;;;5227945;27;20044;-61
2021/06/03 18:29:03;;;;;;;7.03;3.40;;;24.40;54.00;;;;;;5212298;28;20047;-61
2021/06/03 18:31:38;;;;;;;9.57;4.18;;;24.40;53.90;;;;;;5221492;28;20051;-61
2021/06/03 18:34:11;;;;;;;5.57;3.72;;;24.40;53.40;;;;;;5228969;28;20052;-63
2021/06/03 18:36:44;;;;;;;6.15;3.45;;;24.40;53.40;;;;;;5228379;28;20654;-60
2021/06/03 18:39:17;;;;;;;10.45;3.78;;;24.30;53.30;;;;;;5240087;28;20047;-57
2021/06/03 18:41:50;;;;;;;4.75;3.35;;;24.30;53.60;;;;;;5240616;28;20652;-57
2021/06/03 18:44:23;;;;;;;4.72;3.22;;;24.30;53.60;;;;;;5199743;28;20047;-61
2021/06/03 18:46:56;;;;;;;4.75;3.50;;;24.30;53.50;;;;;;5234817;28;20335;-58
2021/06/03 18:49:29;;;;;;;9.38;3.83;;;24.30;53.60;;;;;;5223941;28;20500;-56
2021/06/03 18:52:05;;;;;;;5.88;3.53;;;24.20;53.50;;;;;;5210247;27;20418;-58
2021/06/03 18:54:54;;;;;;;5.60;3.53;;;24.20;53.50;;;;;;5216475;28;20044;-59
2021/06/03 18:57:27;;;;;;;9.52;3.65;;;24.20;53.50;;;;;;5212942;27;20044;-58
2021/06/03 18:59:59;;;;;;;;;;;24.20;53.50;;;;;;5218100;27;20044;-61
2021/06/03 19:02:32;;;;;;;7.68;3.30;;;24.10;53.40;;;;;;5223805;27;20390;-58
2021/06/03 19:05:06;;;;;;;7.25;4.45;;;24.10;53.50;;;;;;5227352;28;20051;-59
2021/06/03 19:07:40;;;;;;;7.55;3.70;;;24.10;53.60;;;;;;5215534;27;20050;-55
2021/06/03 19:10:29;;;;;;;3.72;3.20;;;24.20;53.60;;;;;;5220659;27;20054;-61
2021/06/03 19:13:04;;;;;;;4.05;2.83;;;24.10;53.50;;;;;;5213037;28;20989;-59
2021/06/03 19:15:38;;;;;;;5.78;3.10;;;24.10;53.70;;;;;;5195794;27;20414;-56
2021/06/03 19:18:11;;;;;;;7.65;2.95;;;24.10;53.60;;;;;;5208215;28;20627;-57
2021/06/03 19:20:43;;;;;;;4.70;3.20;;;24.10;53.60;;;;;;5205932;27;20482;-60
2021/06/03 19:23:18;;;;;;;8.95;2.88;;;24.10;53.70;;;;;;5211579;27;20071;-56
2021/06/03 19:25:52;;;;;;;9.30;3.38;;;24.10;53.60;;;;;;5206198;27;20067;-59
2021/06/03 19:28:24;;;;;;;4.90;3.13;;;24.20;53.60;;;;;;5195517;27;20055;-59
2021/06/03 19:30:59;;;;;;;7.57;2.95;;;24.20;53.60;;;;;;5216312;27;20050;-61
